Time;durP1;ratioP1;P1;durP2;ratioP2;P2;SDS_P1;SDS_P2;PMS_P1;PMS_P2;Temp;Humidity;BMP_temperature;BMP_pressure;BME280_temperature;BME280_humidity;BME280_pressure;Samples;Min_cycle;Max_cycle;Signal;HPM_P1;HPM_P2
2022/05/16 00:02:11;;;;;;;12.45;3.13;;;;;;;;;;5024708;28;93340;-68
2022/05/16 00:04:39;;;;;;;19.33;4.00;;;;;;;;;;5012962;28;95007;-68
2022/05/16 00:07:06;;;;;;;13.38;4.10;;;;;;;;;;5013941;28;93801;-68
2022/05/16 00:09:32;;;;;;;15.18;3.47;;;;;;;;;;5027338;28;92397;-67
2022/05/16 00:11:58;;;;;;;17.23;4.07;;;;;;;;;;5016496;28;92922;-68
2022/05/16 00:14:25;;;;;;;14.80;4.30;;;;;;;;;;5022863;27;93071;-68
2022/05/16 00:16:51;;;;;;;12.45;4.07;;;;;;;;;;5012311;27;93805;-68
2022/05/16 00:19:17;;;;;;;14.57;3.85;;;;;;;;;;5014196;28;93296;-69
2022/05/16 00:21:44;;;;;;;11.25;3.67;;;;;;;;;;5023474;28;95432;-68
2022/05/16 00:24:10;;;;;;;16.58;3.70;;;;;;;;;;5024162;28;92625;-68
2022/05/16 00:26:36;;;;;;;15.68;4.07;;;;;;;;;;5013961;28;93438;-68
2022/05/16 00:29:02;;;;;;;24.45;4.30;;;;;;;;;;5016005;28;94747;-68
2022/05/16 00:31:29;;;;;;;16.58;4.30;;;;;;;;;;5016661;28;95679;-68
2022/05/16 00:33:55;;;;;;;11.10;3.28;;;;;;;;;;5017084;28;93396;-68
2022/05/16 00:36:21;;;;;;;14.30;3.95;;;;;;;;;;5021219;28;92485;-68
2022/05/16 00:38:50;;;;;;;17.20;4.30;;;;;;;;;;5020115;28;93112;-68
2022/05/16 00:41:16;;;;;;;12.93;3.88;;;;;;;;;;5016771;28;93467;-68
2022/05/16 00:44:09;;;;;;;20.08;4.18;;;;;;;;;;5020878;28;94415;-68
2022/05/16 00:46:35;;;;;;;20.80;4.90;;;;;;;;;;5025154;27;92564;-68
2022/05/16 00:49:03;;;;;;;14.73;3.45;;;;;;;;;;5029044;27;92464;-68
2022/05/16 00:51:33;;;;;;;9.75;3.17;;;;;;;;;;5015854;28;93422;-68
2022/05/16 00:54:00;;;;;;;;;;;;;;;;;;5015784;28;96075;-68
2022/05/16 00:56:27;;;;;;;13.00;3.83;;;;;;;;;;5019066;28;120435;-68
2022/05/16 00:58:54;;;;;;;12.48;3.47;;;;;;;;;;5018396;28;93231;-68
2022/05/16 01:06:54;;;;;;;18.77;4.55;;;;;;;;;;5022955;28;93926;-68
2022/05/16 01:09:20;;;;;;;16.27;4.03;;;;;;;;;;5033173;28;92514;-68
2022/05/16 01:11:46;;;;;;;16.38;4.00;;;;;;;;;;5033371;27;91784;-68
2022/05/16 01:14:32;;;;;;;14.90;4.00;;;;;;;;;;5016711;28;93433;-68
2022/05/16 01:16:59;;;;;;;13.60;3.83;;;;;;;;;;5026858;27;94256;-68
2022/05/16 01:19:25;;;;;;;17.60;3.70;;;;;;;;;;5015481;28;94903;-68
2022/05/16 01:21:51;;;;;;;11.32;3.72;;;;;;;;;;5017681;28;93492;-68
2022/05/16 01:24:18;;;;;;;16.00;4.28;;;;;;;;;;5026337;28;92560;-68
2022/05/16 01:26:44;;;;;;;19.33;4.60;;;;;;;;;;5022514;27;94279;-68
2022/05/16 01:29:10;;;;;;;11.60;3.70;;;;;;;;;;5038836;27;93459;-68
2022/05/16 01:31:37;;;;;;;16.42;4.05;;;;;;;;;;5022784;27;92980;-68
2022/05/16 01:34:03;;;;;;;12.10;3.75;;;;;;;;;;5017085;28;93435;-68
2022/05/16 01:36:30;;;;;;;11.27;3.45;;;;;;;;;;5028133;27;91743;-68
2022/05/16 01:38:56;;;;;;;16.60;3.63;;;;;;;;;;5030747;27;92394;-68
2022/05/16 01:41:24;;;;;;;13.27;3.83;;;;;;;;;;5015823;28;93095;-68
2022/05/16 01:43:51;;;;;;;18.33;4.38;;;;;;;;;;5014210;28;94879;-68
2022/05/16 01:46:25;;;;;;;14.18;4.22;;;;;;;;;;5022193;27;96410;-68
2022/05/16 01:48:52;;;;;;;15.63;4.45;;;;;;;;;;5032293;28;94711;-68
2022/05/16 01:51:19;;;;;;;15.40;3.80;;;;;;;;;;5031777;27;92485;-68
2022/05/16 01:53:46;;;;;;;14.95;4.28;;;;;;;;;;5015991;28;94429;-68
2022/05/16 01:56:12;;;;;;;19.95;4.88;;;;;;;;;;5015892;28;92475;-68
2022/05/16 01:58:41;;;;;;;15.05;3.95;;;;;;;;;;5030106;28;93176;-68
2022/05/16 02:01:07;;;;;;;17.52;4.25;;;;;;;;;;5016151;27;92543;-68
2022/05/16 02:03:37;;;;;;;26.95;4.25;;;;;;;;;;5015308;28;93332;-68
2022/05/16 02:06:03;;;;;;;17.20;3.85;;;;;;;;;;5019113;28;93191;-68
2022/05/16 02:08:29;;;;;;;22.45;4.63;;;;;;;;;;5022408;27;97034;-68
2022/05/16 02:10:56;;;;;;;18.13;3.90;;;;;;;;;;5036174;27;92844;-68
2022/05/16 02:13:22;;;;;;;12.52;4.30;;;;;;;;;;5025737;27;92964;-68
2022/05/16 02:15:49;;;;;;;20.33;4.22;;;;;;;;;;5027040;27;92494;-68
2022/05/16 02:18:15;;;;;;;14.30;3.85;;;;;;;;;;5018311;27;93575;-68
2022/05/16 02:20:41;;;;;;;17.25;4.38;;;;;;;;;;5017128;28;93678;-68
2022/05/16 02:25:54;;;;;;;25.15;5.13;;;;;;;;;;5016489;28;93170;-68
2022/05/16 02:28:21;;;;;;;14.05;4.10;;;;;;;;;;5015176;28;93567;-68
2022/05/16 02:30:49;;;;;;;13.38;4.25;;;;;;;;;;5016036;28;92463;-68
2022/05/16 02:33:16;;;;;;;14.48;4.20;;;;;;;;;;5028042;27;94991;-68
2022/05/16 02:35:43;;;;;;;15.13;4.32;;;;;;;;;;5017502;28;92846;-68
2022/05/16 02:38:10;;;;;;;12.57;4.75;;;;;;;;;;5015237;28;94265;-68
2022/05/16 02:40:36;;;;;;;13.90;4.10;;;;;;;;;;5016781;28;93606;-68
2022/05/16 02:43:03;;;;;;;17.85;4.38;;;;;;;;;;5015008;28;93730;-68
2022/05/16 02:45:30;;;;;;;17.17;4.40;;;;;;;;;;5021071;27;93994;-68
2022/05/16 02:47:57;;;;;;;22.42;4.80;;;;;;;;;;5020723;27;93289;-68
2022/05/16 02:50:24;;;;;;;12.90;3.88;;;;;;;;;;5015539;28;91718;-68
2022/05/16 02:52:50;;;;;;;14.75;4.50;;;;;;;;;;5017658;28;93415;-68
2022/05/16 02:55:17;;;;;;;13.13;3.70;;;;;;;;;;5018347;28;93964;-68
2022/05/16 02:57:44;;;;;;;15.65;4.35;;;;;;;;;;5019522;28;94848;-68
2022/05/16 03:00:12;;;;;;;19.55;4.35;;;;;;;;;;5015178;27;94596;-68
2022/05/16 03:02:39;;;;;;;10.30;3.83;;;;;;;;;;5015431;28;92343;-68
2022/05/16 03:05:06;;;;;;;16.42;4.63;;;;;;;;;;5014686;28;93945;-68
2022/05/16 03:07:32;;;;;;;20.25;4.32;;;;;;;;;;5026934;28;94531;-68
2022/05/16 03:09:59;;;;;;;15.38;4.53;;;;;;;;;;5032218;28;92512;-68
2022/05/16 03:12:25;;;;;;;18.05;4.40;;;;;;;;;;5035433;28;94532;-68
2022/05/16 03:14:51;;;;;;;21.30;4.15;;;;;;;;;;5022673;27;92538;-68
2022/05/16 03:17:17;;;;;;;16.15;4.68;;;;;;;;;;5038780;27;92481;-68
2022/05/16 03:19:44;;;;;;;21.75;4.32;;;;;;;;;;5021936;27;93435;-67
2022/05/16 03:22:10;;;;;;;11.02;4.53;;;;;;;;;;5032420;27;94990;-68
2022/05/16 03:24:37;;;;;;;10.18;4.20;;;;;;;;;;5015823;27;95674;-68
2022/05/16 03:27:05;;;;;;;15.68;4.43;;;;;;;;;;5015437;28;94265;-68
2022/05/16 03:29:31;;;;;;;13.45;4.43;;;;;;;;;;5017735;27;92454;-68
2022/05/16 03:31:57;;;;;;;15.50;4.30;;;;;;;;;;5014536;27;92507;-67
2022/05/16 03:34:24;;;;;;;16.00;4.88;;;;;;;;;;5013775;27;94675;-68
2022/05/16 03:36:50;;;;;;;18.33;4.50;;;;;;;;;;5017624;27;92504;-67
2022/05/16 03:42:06;;;;;;;11.75;3.95;;;;;;;;;;5016445;27;92575;-68
2022/05/16 03:44:33;;;;;;;18.77;5.10;;;;;;;;;;5026238;28;93279;-68
2022/05/16 03:46:59;;;;;;;13.52;4.50;;;;;;;;;;5019174;27;95863;-68
2022/05/16 03:49:25;;;;;;;16.85;4.53;;;;;;;;;;5014921;28;92388;-67
2022/05/16 03:51:51;;;;;;;15.35;5.10;;;;;;;;;;5013713;28;92421;-68
2022/05/16 03:54:19;;;;;;;10.88;4.97;;;;;;;;;;5013843;28;93442;-67
2022/05/16 03:56:46;;;;;;;11.13;4.82;;;;;;;;;;5019141;28;92472;-67
2022/05/16 03:59:12;;;;;;;13.75;5.10;;;;;;;;;;5024517;27;94419;-68
2022/05/16 04:01:39;;;;;;;16.45;4.88;;;;;;;;;;5027222;27;94077;-68
2022/05/16 04:04:09;;;;;;;15.00;4.57;;;;;;;;;;5017691;28;93404;-67
2022/05/16 04:06:36;;;;;;;16.10;4.93;;;;;;;;;;5032032;28;93268;-68
2022/05/16 04:09:03;;;;;;;13.30;4.32;;;;;;;;;;5026800;27;93066;-68
2022/05/16 04:11:29;;;;;;;20.65;4.95;;;;;;;;;;5017939;28;95342;-68
2022/05/16 04:13:56;;;;;;;11.65;5.03;;;;;;;;;;5016961;28;93524;-68
2022/05/16 04:16:22;;;;;;;15.95;5.10;;;;;;;;;;5031067;27;92474;-68
2022/05/16 04:18:48;;;;;;;17.85;5.45;;;;;;;;;;5024946;27;94271;-68
2022/05/16 04:21:17;;;;;;;17.35;5.80;;;;;;;;;;5012117;28;95420;-68
2022/05/16 04:23:43;;;;;;;23.70;4.93;;;;;;;;;;5013961;27;93722;-67
2022/05/16 04:26:09;;;;;;;23.38;5.50;;;;;;;;;;5009444;28;93492;-68
2022/05/16 04:28:36;;;;;;;25.02;6.03;;;;;;;;;;5010028;28;92620;-69
2022/05/16 04:31:02;;;;;;;15.50;4.80;;;;;;;;;;5008868;27;94055;-68
2022/05/16 04:33:28;;;;;;;18.30;5.50;;;;;;;;;;5008013;28;93274;-68
2022/05/16 04:35:54;;;;;;;19.70;5.15;;;;;;;;;;5012017;28;96803;-68
2022/05/16 04:38:21;;;;;;;27.25;5.63;;;;;;;;;;5009205;27;95542;-67
2022/05/16 04:43:32;;;;;;;17.15;5.15;;;;;;;;;;5013301;28;93830;-68
2022/05/16 04:45:58;;;;;;;14.02;4.95;;;;;;;;;;5014639;27;95118;-68
2022/05/16 04:48:24;;;;;;;16.42;4.82;;;;;;;;;;5009014;27;94481;-68
2022/05/16 04:50:51;;;;;;;15.82;5.70;;;;;;;;;;5009709;28;94129;-68
2022/05/16 04:53:17;;;;;;;13.20;5.13;;;;;;;;;;5011004;28;92522;-68
2022/05/16 04:55:43;;;;;;;15.70;5.25;;;;;;;;;;5009145;28;92554;-68
2022/05/16 04:58:09;;;;;;;24.42;5.50;;;;;;;;;;5009778;28;93250;-68
2022/05/16 05:00:36;;;;;;;15.88;4.78;;;;;;;;;;5006839;28;95855;-68
2022/05/16 05:03:02;;;;;;;11.00;4.93;;;;;;;;;;5008580;28;92699;-69
2022/05/16 05:05:28;;;;;;;14.15;5.53;;;;;;;;;;5012412;27;94197;-68
2022/05/16 05:07:54;;;;;;;14.35;4.68;;;;;;;;;;5009977;28;93290;-68
2022/05/16 05:16:25;;;;;;;11.48;4.55;;;;;;;;;;5012098;27;92940;-68
2022/05/16 05:18:52;;;;;;;15.57;5.43;;;;;;;;;;4986558;28;93359;-68
2022/05/16 05:21:19;;;;;;;10.00;4.63;;;;;;;;;;5007549;28;92604;-68
2022/05/16 05:23:45;;;;;;;25.52;5.75;;;;;;;;;;5009396;27;92560;-68
2022/05/16 05:26:12;;;;;;;19.48;5.35;;;;;;;;;;5007540;28;95634;-68
2022/05/16 05:28:39;;;;;;;36.88;6.80;;;;;;;;;;5012848;28;94265;-68
2022/05/16 05:31:10;;;;;;;32.95;6.00;;;;;;;;;;5010791;27;93306;-67
2022/05/16 05:33:36;;;;;;;23.67;6.57;;;;;;;;;;5011578;28;93518;-69
2022/05/16 05:36:03;;;;;;;21.52;6.28;;;;;;;;;;5013245;27;92564;-69
2022/05/16 05:38:29;;;;;;;13.57;5.55;;;;;;;;;;5008757;27;93143;-68
2022/05/16 05:40:55;;;;;;;20.42;5.00;;;;;;;;;;5011296;28;93316;-68
2022/05/16 05:43:21;;;;;;;11.73;5.10;;;;;;;;;;5013445;28;93215;-67
2022/05/16 05:45:48;;;;;;;24.98;6.22;;;;;;;;;;5027223;27;92528;-67
2022/05/16 05:48:19;;;;;;;26.63;5.90;;;;;;;;;;5023573;27;93762;-67
2022/05/16 05:50:45;;;;;;;14.70;5.28;;;;;;;;;;5014549;28;94995;-68
2022/05/16 05:53:11;;;;;;;23.63;5.35;;;;;;;;;;5017194;28;93857;-68
2022/05/16 05:55:39;;;;;;;19.65;5.70;;;;;;;;;;5015834;28;92877;-68
2022/05/16 05:58:05;;;;;;;16.33;5.18;;;;;;;;;;5019749;28;93918;-68
2022/05/16 06:00:31;;;;;;;21.13;5.10;;;;;;;;;;5016462;27;93781;-68
2022/05/16 06:03:00;;;;;;;18.70;4.90;;;;;;;;;;5015674;28;92485;-67
2022/05/16 06:05:27;;;;;;;16.58;4.57;;;;;;;;;;5015865;28;93210;-67
2022/05/16 06:07:53;;;;;;;12.70;4.55;;;;;;;;;;5017700;28;92361;-67
2022/05/16 06:10:19;;;;;;;19.05;4.63;;;;;;;;;;5022693;28;92832;-68
2022/05/16 06:12:46;;;;;;;20.05;5.05;;;;;;;;;;5019094;28;93016;-67
2022/05/16 06:15:13;;;;;;;14.60;4.20;;;;;;;;;;5020055;27;95359;-67
2022/05/16 06:17:40;;;;;;;12.77;4.22;;;;;;;;;;5036091;27;95623;-66
2022/05/16 06:20:07;;;;;;;15.65;5.03;;;;;;;;;;5021451;27;93496;-67
2022/05/16 06:22:34;;;;;;;16.92;4.28;;;;;;;;;;5016218;28;92713;-67
2022/05/16 06:27:49;;;;;;;17.92;4.43;;;;;;;;;;5027431;27;93393;-67
2022/05/16 06:30:19;;;;;;;15.43;4.65;;;;;;;;;;5015063;28;92596;-67
2022/05/16 06:32:45;;;;;;;25.05;4.38;;;;;;;;;;5024829;27;94136;-66
2022/05/16 06:35:12;;;;;;;17.73;4.72;;;;;;;;;;5018086;28;93457;-68
2022/05/16 06:37:38;;;;;;;8.48;4.25;;;;;;;;;;5020084;28;94575;-66
2022/05/16 06:40:06;;;;;;;18.42;4.43;;;;;;;;;;5030148;27;95450;-67
2022/05/16 06:42:32;;;;;;;11.63;3.70;;;;;;;;;;5025758;28;92485;-67
2022/05/16 06:44:59;;;;;;;15.23;3.58;;;;;;;;;;5016266;27;92585;-68
2022/05/16 06:47:25;;;;;;;12.07;3.92;;;;;;;;;;5023989;27;93407;-68
2022/05/16 06:49:51;;;;;;;16.58;3.75;;;;;;;;;;5014464;28;92483;-67
2022/05/16 06:52:18;;;;;;;16.10;4.18;;;;;;;;;;5014742;28;92505;-66
2022/05/16 06:54:44;;;;;;;10.68;3.75;;;;;;;;;;5014978;28;93491;-66
2022/05/16 06:57:11;;;;;;;16.35;4.00;;;;;;;;;;5021093;28;91716;-66
2022/05/16 06:59:38;;;;;;;18.67;4.25;;;;;;;;;;5033414;27;93770;-67
2022/05/16 07:02:06;;;;;;;16.10;4.35;;;;;;;;;;5031493;27;92449;-66
2022/05/16 07:04:32;;;;;;;11.25;4.03;;;;;;;;;;5033162;27;94990;-66
2022/05/16 07:06:59;;;;;;;11.40;4.45;;;;;;;;;;5029851;27;94432;-66
2022/05/16 07:09:25;;;;;;;22.40;5.07;;;;;;;;;;5015936;28;92795;-68
2022/05/16 07:11:51;;;;;;;17.90;4.20;;;;;;;;;;5019723;28;94159;-67
2022/05/16 07:14:17;;;;;;;16.33;4.43;;;;;;;;;;5023302;27;93519;-67
2022/05/16 07:16:44;;;;;;;18.95;5.07;;;;;;;;;;5026842;27;92478;-67
2022/05/16 07:19:10;;;;;;;17.63;4.97;;;;;;;;;;5019872;28;93097;-67
2022/05/16 07:21:38;;;;;;;21.98;4.50;;;;;;;;;;5018572;28;93519;-66
2022/05/16 07:24:04;;;;;;;13.27;5.00;;;;;;;;;;5012201;27;93798;-67
2022/05/16 07:29:15;;;;;;;21.77;4.43;;;;;;;;;;5020316;28;95260;-68
2022/05/16 07:31:42;;;;;;;10.98;4.53;;;;;;;;;;5034167;27;95714;-68
2022/05/16 07:34:12;;;;;;;13.60;4.22;;;;;;;;;;5034170;27;93767;-68
2022/05/16 07:36:39;;;;;;;22.00;4.47;;;;;;;;;;5034705;27;92462;-68
2022/05/16 07:39:05;;;;;;;21.05;5.00;;;;;;;;;;5037776;27;93024;-68
2022/05/16 07:41:31;;;;;;;11.20;5.20;;;;;;;;;;5033197;28;92442;-68
2022/05/16 07:43:58;;;;;;;20.23;5.15;;;;;;;;;;5034410;27;93157;-68
2022/05/16 07:46:24;;;;;;;17.60;5.85;;;;;;;;;;5035885;27;92663;-68
2022/05/16 07:48:51;;;;;;;24.40;5.05;;;;;;;;;;5033548;28;92456;-68
2022/05/16 07:51:17;;;;;;;18.70;5.40;;;;;;;;;;5032821;27;92908;-68
2022/05/16 07:53:44;;;;;;;19.67;5.68;;;;;;;;;;5032927;27;95840;-68
2022/05/16 07:56:11;;;;;;;16.85;5.68;;;;;;;;;;5034807;27;92919;-68
2022/05/16 07:58:37;;;;;;;19.33;5.32;;;;;;;;;;5034661;27;93393;-68
2022/05/16 08:01:03;;;;;;;21.23;5.97;;;;;;;;;;5037350;27;93267;-68
2022/05/16 08:03:30;;;;;;;14.93;5.30;;;;;;;;;;5034647;27;94192;-68
2022/05/16 08:05:57;;;;;;;28.75;5.80;;;;;;;;;;5034468;27;95872;-68
2022/05/16 08:11:09;;;;;;;17.80;5.30;;;;;;;;;;5034697;27;93178;-68
2022/05/16 08:13:36;;;;;;;21.38;6.35;;;;;;;;;;5034277;27;93491;-68
2022/05/16 08:16:02;;;;;;;15.30;6.28;;;;;;;;;;5031592;27;92423;-68
2022/05/16 08:18:29;;;;;;;18.77;6.00;;;;;;;;;;5032958;27;94750;-68
2022/05/16 08:20:55;;;;;;;24.63;6.45;;;;;;;;;;5034058;27;93462;-67
2022/05/16 08:23:25;;;;;;;27.70;7.45;;;;;;;;;;5037184;27;92527;-68
2022/05/16 08:25:55;;;;;;;20.83;6.82;;;;;;;;;;5033802;27;93124;-68
2022/05/16 08:28:22;;;;;;;25.95;7.28;;;;;;;;;;5034090;27;92502;-68
2022/05/16 08:30:49;;;;;;;18.30;6.43;;;;;;;;;;5034430;28;94290;-67
2022/05/16 08:33:15;;;;;;;19.48;7.25;;;;;;;;;;5034281;28;95753;-68
2022/05/16 08:35:41;;;;;;;15.15;6.40;;;;;;;;;;5034911;27;91746;-68
2022/05/16 08:40:58;;;;;;;21.95;6.60;;;;;;;;;;5033846;27;93102;-67
2022/05/16 08:43:32;;;;;;;21.70;6.22;;;;;;;;;;5032433;27;95189;-68
2022/05/16 08:46:07;;;;;;;15.73;5.57;;;;;;;;;;5037145;27;94252;-67
2022/05/16 08:48:36;;;;;;;26.55;7.03;;;;;;;;;;5035803;27;92491;-68
2022/05/16 08:51:06;;;;;;;20.50;6.53;;;;;;;;;;5037295;27;93269;-68
2022/05/16 08:53:35;;;;;;;14.80;5.07;;;;;;;;;;5036668;27;93449;-68
2022/05/16 08:56:07;;;;;;;11.40;4.88;;;;;;;;;;5037351;27;92440;-68
2022/05/16 08:58:52;;;;;;;11.50;4.68;;;;;;;;;;5037336;27;93061;-68
2022/05/16 09:01:20;;;;;;;18.63;4.05;;;;;;;;;;5037287;27;92482;-68
2022/05/16 09:03:49;;;;;;;14.25;4.88;;;;;;;;;;5037131;27;92454;-68
2022/05/16 09:06:21;;;;;;;16.58;5.28;;;;;;;;;;5040256;27;94287;-68
2022/05/16 09:08:49;;;;;;;15.10;5.22;;;;;;;;;;5035562;27;94851;-67
2022/05/16 09:11:29;;;;;;;11.05;4.40;;;;;;;;;;5037072;28;96762;-68
2022/05/16 09:14:18;;;;;;;9.60;4.17;;;;;;;;;;5037045;28;94485;-67
2022/05/16 09:16:52;;;;;;;17.00;5.63;;;;;;;;;;5028460;27;92508;-68
2022/05/16 09:19:26;;;;;;;21.90;5.38;;;;;;;;;;5037368;27;93459;-68
2022/05/16 09:22:11;;;;;;;10.30;4.07;;;;;;;;;;5036713;27;93301;-68
2022/05/16 09:24:41;;;;;;;13.63;4.70;;;;;;;;;;5036961;27;92463;-68
2022/05/16 09:27:09;;;;;;;18.73;5.00;;;;;;;;;;5037682;27;92861;-68
2022/05/16 09:29:39;;;;;;;13.60;4.53;;;;;;;;;;5039959;27;94571;-68
2022/05/16 09:32:09;;;;;;;16.58;5.28;;;;;;;;;;5036488;27;93064;-68
2022/05/16 09:34:35;;;;;;;11.40;4.78;;;;;;;;;;5033577;27;96083;-68
2022/05/16 09:37:02;;;;;;;10.80;4.80;;;;;;;;;;5036878;27;92558;-69
2022/05/16 09:39:31;;;;;;;12.40;4.97;;;;;;;;;;5036691;27;93442;-68
2022/05/16 09:42:02;;;;;;;11.43;4.90;;;;;;;;;;5036019;27;93401;-68
2022/05/16 09:44:55;;;;;;;17.33;4.72;;;;;;;;;;5036651;27;92493;-68
2022/05/16 09:47:34;;;;;;;8.85;4.28;;;;;;;;;;5012304;28;93074;-68
2022/05/16 09:50:15;;;;;;;17.97;4.93;;;;;;;;;;5015382;28;94714;-68
2022/05/16 09:52:46;;;;;;;13.18;5.10;;;;;;;;;;5017796;28;91751;-68
2022/05/16 09:55:22;;;;;;;11.18;4.72;;;;;;;;;;5016131;28;93249;-68
2022/05/16 09:57:50;;;;;;;17.30;4.72;;;;;;;;;;5016359;28;92353;-68
2022/05/16 10:00:39;;;;;;;8.80;4.07;;;;;;;;;;5014970;28;94832;-68
2022/05/16 10:03:16;;;;;;;17.10;4.72;;;;;;;;;;5015717;28;93459;-68
2022/05/16 10:05:47;;;;;;;17.88;4.43;;;;;;;;;;5016113;28;92485;-68
2022/05/16 10:08:21;;;;;;;14.20;4.38;;;;;;;;;;5015795;28;92985;-68
2022/05/16 10:10:48;;;;;;;7.78;3.83;;;;;;;;;;5015664;28;93628;-68
2022/05/16 10:13:15;;;;;;;13.23;3.75;;;;;;;;;;5016210;28;92433;-67
2022/05/16 10:15:43;;;;;;;11.40;4.25;;;;;;;;;;5028675;27;93201;-69
2022/05/16 10:18:13;;;;;;;10.80;3.70;;;;;;;;;;5036611;27;91708;-68
2022/05/16 10:20:42;;;;;;;16.35;5.32;;;;;;;;;;5035762;27;93241;-67
2022/05/16 10:23:27;;;;;;;12.63;4.80;;;;;;;;;;5035802;27;93239;-68
2022/05/16 10:25:55;;;;;;;10.82;4.93;;;;;;;;;;5034426;27;94829;-67
2022/05/16 10:28:25;;;;;;;10.90;5.28;;;;;;;;;;5035894;27;95637;-68
2022/05/16 10:33:39;;;;;;;18.58;5.13;;;;;;;;;;5035513;27;92433;-68
2022/05/16 10:36:08;;;;;;;11.52;5.20;;;;;;;;;;5035928;27;93196;-68
2022/05/16 10:39:01;;;;;;;12.25;4.85;;;;;;;;;;5037256;28;93274;-68
2022/05/16 10:41:41;;;;;;;9.60;4.38;;;;;;;;;;5011332;27;94221;-68
2022/05/16 10:44:17;;;;;;;13.98;4.53;;;;;;;;;;5035901;27;92682;-68
2022/05/16 10:46:48;;;;;;;15.82;4.30;;;;;;;;;;5034548;27;92502;-68
2022/05/16 10:49:17;;;;;;;13.75;3.97;;;;;;;;;;5035174;27;93324;-67
2022/05/16 10:51:49;;;;;;;10.73;4.13;;;;;;;;;;5032735;27;95994;-68
2022/05/16 10:54:18;;;;;;;14.95;4.65;;;;;;;;;;5035460;27;92477;-68
2022/05/16 10:56:50;;;;;;;13.02;5.78;;;;;;;;;;5035523;27;93195;-69
2022/05/16 10:59:36;;;;;;;8.40;4.28;;;;;;;;;;5035118;27;93282;-67
2022/05/16 11:02:21;;;;;;;13.65;4.32;;;;;;;;;;5038185;27;92490;-68
2022/05/16 11:05:08;;;;;;;10.25;4.70;;;;;;;;;;5035068;28;94064;-68
2022/05/16 11:07:53;;;;;;;16.23;3.67;;;;;;;;;;5035224;27;92428;-68
2022/05/16 11:10:31;;;;;;;9.90;3.72;;;;;;;;;;5035408;27;94311;-69
2022/05/16 11:13:16;;;;;;;11.13;2.97;;;;;;;;;;5035147;27;94574;-68
2022/05/16 11:15:48;;;;;;;21.05;3.63;;;;;;;;;;5032690;27;92402;-68
2022/05/16 11:18:24;;;;;;;9.80;2.85;;;;;;;;;;5032265;28;94865;-68
2022/05/16 11:20:55;;;;;;;9.50;2.90;;;;;;;;;;5035055;27;94187;-68
2022/05/16 11:23:27;;;;;;;12.13;3.22;;;;;;;;;;5038108;27;92386;-68
2022/05/16 11:26:16;;;;;;;15.15;3.17;;;;;;;;;;5035128;27;93642;-68
2022/05/16 11:29:17;;;;;;;9.13;2.95;;;;;;;;;;5029193;28;92654;-68
2022/05/16 11:31:36;;;;;;;10.40;2.80;;;;;;;;;;5035236;27;93127;-68
2022/05/16 11:34:04;;;;;;;8.82;2.45;;;;;;;;;;5034685;27;94613;-68
2022/05/16 11:36:39;;;;;;;11.98;3.13;;;;;;;;;;5035354;27;91706;-68
2022/05/16 11:39:12;;;;;;;13.32;3.35;;;;;;;;;;5034837;27;92490;-68
2022/05/16 11:41:56;;;;;;;14.90;3.97;;;;;;;;;;5034222;27;92998;-68
2022/05/16 11:44:30;;;;;;;7.65;3.85;;;;;;;;;;5032974;27;94756;-68
2022/05/16 11:46:56;;;;;;;10.50;4.07;;;;;;;;;;5031428;27;95350;-67
2022/05/16 11:49:48;;;;;;;10.95;3.83;;;;;;;;;;5014721;27;93073;-68
2022/05/16 11:52:46;;;;;;;16.38;3.75;;;;;;;;;;5026337;28;92592;-68
2022/05/16 12:00:57;;;;;;;9.98;3.90;;;;;;;;;;5015085;28;92949;-67
2022/05/16 12:03:31;;;;;;;6.75;3.33;;;;;;;;;;5014469;28;92148;-68
2022/05/16 12:06:16;;;;;;;10.23;3.95;;;;;;;;;;5014387;28;92388;-67
2022/05/16 12:08:46;;;;;;;16.27;4.07;;;;;;;;;;5014952;28;93709;-67
2022/05/16 12:11:15;;;;;;;15.20;4.10;;;;;;;;;;5015537;28;96833;-67
2022/05/16 12:14:00;;;;;;;6.15;4.32;;;;;;;;;;5015299;28;95859;-67
2022/05/16 12:16:29;;;;;;;12.20;4.50;;;;;;;;;;5029190;27;93137;-67
2022/05/16 12:19:15;;;;;;;8.43;4.75;;;;;;;;;;5016592;27;92525;-67
2022/05/16 12:21:52;;;;;;;9.68;4.85;;;;;;;;;;5014231;28;92937;-67
2022/05/16 12:24:28;;;;;;;9.93;5.82;;;;;;;;;;5016672;28;93021;-67
2022/05/16 12:27:01;;;;;;;13.65;6.55;;;;;;;;;;5025223;28;92419;-67
2022/05/16 12:29:37;;;;;;;16.05;7.03;;;;;;;;;;5036500;27;92978;-68
2022/05/16 12:32:04;;;;;;;19.15;7.65;;;;;;;;;;5037220;27;93484;-67
2022/05/16 12:34:33;;;;;;;13.73;7.30;;;;;;;;;;5024295;27;92860;-67
2022/05/16 12:37:00;;;;;;;15.05;7.85;;;;;;;;;;5026620;28;96037;-67
2022/05/16 12:39:29;;;;;;;25.33;11.32;;;;;;;;;;5031975;27;92487;-66
2022/05/16 12:41:55;;;;;;;22.33;11.73;;;;;;;;;;5032552;28;93037;-66
2022/05/16 12:44:42;;;;;;;24.98;12.88;;;;;;;;;;5036058;27;94422;-66
2022/05/16 12:47:27;;;;;;;21.83;14.07;;;;;;;;;;5017444;27;92728;-67
2022/05/16 12:49:56;;;;;;;23.80;12.63;;;;;;;;;;5016291;28;93350;-68
2022/05/16 12:52:37;;;;;;;18.23;9.73;;;;;;;;;;5016387;28;93405;-67
2022/05/16 12:55:22;;;;;;;18.08;8.07;;;;;;;;;;5035229;27;91775;-67
2022/05/16 12:57:53;;;;;;;11.13;7.07;;;;;;;;;;5020475;28;92404;-67
2022/05/16 13:00:23;;;;;;;13.15;6.65;;;;;;;;;;5017092;28;92352;-67
2022/05/16 13:03:12;;;;;;;12.60;6.75;;;;;;;;;;5015490;28;94871;-68
2022/05/16 13:05:57;;;;;;;14.40;6.63;;;;;;;;;;5015236;28;94735;-68
2022/05/16 13:08:46;;;;;;;13.77;6.72;;;;;;;;;;5026873;28;93930;-67
2022/05/16 13:11:25;;;;;;;12.68;5.95;;;;;;;;;;5036651;27;93452;-67
2022/05/16 13:14:12;;;;;;;13.15;5.50;;;;;;;;;;5028790;27;93934;-67
2022/05/16 13:16:40;;;;;;;11.85;5.60;;;;;;;;;;5029369;27;92488;-68
2022/05/16 13:19:09;;;;;;;20.10;6.55;;;;;;;;;;5016389;28;93227;-67
2022/05/16 13:21:58;;;;;;;23.63;6.65;;;;;;;;;;5020085;28;92358;-68
2022/05/16 13:24:25;;;;;;;12.68;6.00;;;;;;;;;;5010844;28;92546;-67
2022/05/16 13:30:07;;;;;;;18.15;6.43;;;;;;;;;;5014129;28;94855;-67
2022/05/16 13:32:33;;;;;;;18.60;7.22;;;;;;;;;;5016604;28;95621;-67
2022/05/16 13:35:01;;;;;;;16.30;6.57;;;;;;;;;;5015925;28;93420;-67
2022/05/16 13:37:29;;;;;;;19.77;6.53;;;;;;;;;;5016238;28;94128;-67
2022/05/16 13:39:57;;;;;;;19.17;7.05;;;;;;;;;;5018645;28;94242;-67
2022/05/16 13:42:23;;;;;;;18.83;6.40;;;;;;;;;;5018581;28;93307;-68
2022/05/16 13:44:54;;;;;;;20.92;6.53;;;;;;;;;;5033496;28;94283;-67
2022/05/16 13:47:22;;;;;;;26.38;7.00;;;;;;;;;;5032810;28;92738;-67
2022/05/16 13:49:49;;;;;;;22.20;6.15;;;;;;;;;;5036501;27;92539;-68
2022/05/16 13:52:19;;;;;;;17.27;5.55;;;;;;;;;;5031769;27;92459;-67
2022/05/16 13:54:46;;;;;;;18.73;5.38;;;;;;;;;;5019944;27;96050;-67
2022/05/16 13:57:13;;;;;;;14.43;5.55;;;;;;;;;;5032859;28;92454;-68
2022/05/16 13:59:39;;;;;;;16.48;5.00;;;;;;;;;;5030361;27;93061;-68
2022/05/16 14:02:10;;;;;;;19.48;5.65;;;;;;;;;;5016153;28;93234;-67
2022/05/16 14:04:43;;;;;;;17.73;5.57;;;;;;;;;;5019043;28;92485;-68
2022/05/16 14:07:15;;;;;;;18.42;5.65;;;;;;;;;;5026540;28;93473;-67
2022/05/16 14:09:44;;;;;;;15.20;5.53;;;;;;;;;;5031676;27;92428;-68
2022/05/16 14:12:17;;;;;;;13.90;5.90;;;;;;;;;;5025547;28;94487;-67
2022/05/16 14:14:44;;;;;;;16.50;5.28;;;;;;;;;;5028329;28;94418;-67
2022/05/16 14:17:27;;;;;;;26.88;5.68;;;;;;;;;;5030752;27;93266;-68
2022/05/16 14:19:53;;;;;;;16.85;5.55;;;;;;;;;;5026760;27;95748;-67
2022/05/16 14:22:29;;;;;;;16.85;4.97;;;;;;;;;;5030193;28;93604;-66
2022/05/16 14:25:06;;;;;;;18.73;4.90;;;;;;;;;;5036119;27;92524;-65
2022/05/16 14:27:38;;;;;;;17.20;4.72;;;;;;;;;;5037141;27;94129;-66
2022/05/16 14:30:19;;;;;;;13.43;4.13;;;;;;;;;;5033147;28;92604;-66
2022/05/16 14:33:06;;;;;;;19.73;4.60;;;;;;;;;;5028372;28;92505;-66
2022/05/16 14:35:33;;;;;;;18.48;4.45;;;;;;;;;;5035741;27;93960;-67
2022/05/16 14:38:09;;;;;;;13.63;4.05;;;;;;;;;;5033859;27;91820;-66
2022/05/16 14:40:40;;;;;;;17.23;4.72;;;;;;;;;;5027856;27;92590;-67
2022/05/16 14:43:09;;;;;;;11.90;4.03;;;;;;;;;;5034583;27;93405;-67
2022/05/16 14:48:31;;;;;;;12.85;4.53;;;;;;;;;;5015342;28;95642;-67
2022/05/16 14:50:57;;;;;;;14.55;3.75;;;;;;;;;;5020754;28;93502;-67
2022/05/16 14:53:24;;;;;;;15.50;3.58;;;;;;;;;;5030980;27;93193;-67
2022/05/16 14:55:51;;;;;;;12.57;3.17;;;;;;;;;;5019469;28;93151;-66
2022/05/16 14:58:17;;;;;;;5.28;2.40;;;;;;;;;;5016020;28;92512;-67
2022/05/16 15:06:15;;;;;;;9.80;3.42;;;;;;;;;;5015977;27;92431;-66
2022/05/16 15:08:44;;;;;;;12.38;3.63;;;;;;;;;;5017446;27;92734;-67
2022/05/16 15:11:10;;;;;;;14.77;3.92;;;;;;;;;;5010773;28;96917;-66
2022/05/16 15:13:36;;;;;;;10.05;4.05;;;;;;;;;;5020074;27;92484;-67
2022/05/16 15:16:03;;;;;;;15.20;4.28;;;;;;;;;;5018528;27;92896;-67
2022/05/16 15:18:30;;;;;;;15.75;4.03;;;;;;;;;;5015184;28;92861;-67
2022/05/16 15:20:58;;;;;;;14.20;4.90;;;;;;;;;;5028222;28;93006;-67
2022/05/16 15:23:27;;;;;;;21.23;4.68;;;;;;;;;;5014933;28;93473;-67
2022/05/16 15:25:53;;;;;;;13.32;4.22;;;;;;;;;;5018907;27;92427;-67
2022/05/16 15:28:20;;;;;;;17.42;3.97;;;;;;;;;;5016005;28;93986;-66
2022/05/16 15:30:46;;;;;;;23.45;4.75;;;;;;;;;;5015608;28;93569;-67
2022/05/16 15:33:13;;;;;;;24.88;3.92;;;;;;;;;;5013658;28;92459;-67
2022/05/16 15:35:41;;;;;;;13.80;4.05;;;;;;;;;;5020248;28;94815;-67
2022/05/16 15:38:08;;;;;;;13.90;3.88;;;;;;;;;;5014899;28;92471;-67